Time;durP1;ratioP1;P1;durP2;ratioP2;P2;SDS_P1;SDS_P2;PMS_P1;PMS_P2;Temp;Humidity;BMP_temperature;BMP_pressure;BME280_temperature;BME280_humidity;BME280_pressure;Samples;Min_cycle;Max_cycle;Signal;HPM_P1;HPM_P2
2022/06/24 00:02:03;;;;;;;5.90;4.00;;;;;;;21.27;73.76;100531.88;5093373;28;20031;-79
2022/06/24 00:04:30;;;;;;;4.87;3.57;;;;;;;21.23;73.68;100523.28;5094289;28;20383;-79
2022/06/24 00:06:57;;;;;;;7.78;4.30;;;;;;;21.21;75.03;100521.69;5093859;28;20035;-79
2022/06/24 00:09:26;;;;;;;4.63;3.38;;;;;;;21.23;72.93;100546.19;5093469;28;20120;-79
2022/06/24 00:12:06;;;;;;;3.10;2.70;;;;;;;21.27;71.88;100592.56;5093688;28;20149;-79
2022/06/24 00:14:33;;;;;;;4.53;2.97;;;;;;;21.29;72.85;100631.09;5093777;28;20028;-79
2022/06/24 00:17:02;;;;;;;9.90;4.80;;;;;;;21.26;75.01;100635.72;5092847;28;20024;-81
2022/06/24 00:19:34;;;;;;;8.43;4.18;;;;;;;21.09;79.13;100637.63;5094111;28;20028;-86
2022/06/24 00:22:05;;;;;;;6.65;4.10;;;;;;;20.93;78.97;100644.84;5089302;28;20055;-87
2022/06/24 00:24:39;;;;;;;6.63;4.10;;;;;;;20.79;83.19;100664.97;5092169;28;20028;-86
2022/06/24 00:27:19;;;;;;;11.80;5.53;;;;;;;20.66;81.74;100701.75;5093370;28;20157;-84
2022/06/24 00:29:46;;;;;;;7.30;4.45;;;;;;;20.58;79.88;100709.28;5093056;28;20063;-83
2022/06/24 00:32:13;;;;;;;6.97;4.63;;;;;;;20.50;82.30;100701.81;5092245;28;20036;-84
2022/06/24 00:34:40;;;;;;;6.20;4.10;;;;;;;20.44;83.58;100712.75;5093754;28;20031;-85
2022/06/24 00:37:28;;;;;;;10.13;4.63;;;;;;;20.37;83.13;100721.97;5090876;28;20044;-85
2022/06/24 00:40:01;;;;;;;7.47;4.40;;;;;;;20.31;81.63;100725.81;5088730;28;20515;-86
2022/06/24 00:42:27;;;;;;;12.60;6.65;;;;;;;20.26;85.42;100732.28;5093414;28;20024;-86
2022/06/24 00:45:22;;;;;;;10.35;5.75;;;;;;;20.14;84.49;100732.03;5092751;28;20024;-86
2022/06/24 00:47:51;;;;;;;7.13;4.90;;;;;;;20.08;83.14;100721.84;5093713;28;20032;-85
2022/06/24 00:50:28;;;;;;;6.00;4.20;;;;;;;20.11;84.48;100720.81;5093161;28;20020;-87
2022/06/24 00:52:57;;;;;;;9.80;5.13;;;;;;;19.97;83.89;100688.22;5092415;28;20089;-86
2022/06/24 00:55:32;;;;;;;6.85;4.07;;;;;;;19.80;83.71;100694.44;5090420;28;20025;-86
2022/06/24 00:58:00;;;;;;;5.28;3.90;;;;;;;19.67;82.94;100702.16;5093432;28;20081;-85
2022/06/24 01:00:34;;;;;;;5.35;3.25;;;;;;;19.61;83.09;100705.13;5092775;28;20030;-85
2022/06/24 01:03:06;;;;;;;3.60;3.00;;;;;;;19.52;82.03;100695.97;5087777;28;20036;-85
2022/06/24 01:05:33;;;;;;;2.97;2.60;;;;;;;19.42;82.47;100702.66;5074374;28;20020;-84
2022/06/24 01:08:09;;;;;;;2.50;2.30;;;;;;;19.28;82.39;100691.09;5089121;28;20105;-87
2022/06/24 01:10:36;;;;;;;2.25;2.05;;;;;;;19.18;82.36;100678.56;5074884;28;20024;-86
2022/06/24 01:13:14;;;;;;;3.03;2.10;;;;;;;19.06;82.30;100677.41;5073416;28;20038;-86
2022/06/24 01:15:40;;;;;;;2.65;2.00;;;;;;;18.91;82.73;100656.25;5081558;28;20377;-85
2022/06/24 01:18:07;;;;;;;2.00;1.90;;;;;;;18.74;83.28;100665.03;5093025;28;20031;-83
2022/06/24 01:20:32;;;;;;;1.70;1.60;;;;;;;18.63;83.49;100656.88;5091628;28;20445;-83
2022/06/24 01:22:58;;;;;;;1.77;1.67;;;;;;;18.53;82.86;100649.44;5083954;28;20024;-83
2022/06/24 01:25:23;;;;;;;2.20;1.60;;;;;;;18.45;81.84;100637.63;5092803;28;20119;-83
2022/06/24 01:27:48;;;;;;;1.27;1.17;;;;;;;18.39;82.58;100630.94;5091928;28;20027;-83
2022/06/24 01:30:13;;;;;;;1.20;1.10;;;;;;;18.41;81.39;100636.09;5093404;28;20022;-83
2022/06/24 01:32:39;;;;;;;0.97;0.97;;;;;;;18.36;80.68;100642.41;5092639;28;20401;-83
2022/06/24 01:35:05;;;;;;;0.90;0.90;;;;;;;18.32;83.59;100640.91;5092089;28;20016;-83
2022/06/24 01:37:30;;;;;;;0.98;0.98;;;;;;;18.32;80.64;100650.53;5092715;28;20021;-83
2022/06/24 01:39:55;;;;;;;0.83;0.77;;;;;;;18.34;80.50;100646.06;5092417;28;20035;-83
2022/06/24 01:42:21;;;;;;;0.80;0.80;;;;;;;18.34;79.40;100640.81;5091897;28;20165;-83
2022/06/24 01:44:46;;;;;;;0.50;0.50;;;;;;;18.38;79.50;100634.47;5092435;28;20376;-83
2022/06/24 01:47:11;;;;;;;0.70;0.70;;;;;;;18.41;78.88;100610.66;5090535;28;20035;-82
2022/06/24 01:49:37;;;;;;;0.50;0.50;;;;;;;18.47;78.52;100610.34;5089666;28;20036;-83
2022/06/24 01:52:02;;;;;;;0.77;0.73;;;;;;;18.46;79.04;100606.03;5092366;28;20128;-83
2022/06/24 01:54:28;;;;;;;0.50;0.50;;;;;;;18.43;79.09;100605.34;5092348;28;20093;-82
2022/06/24 01:56:54;;;;;;;0.63;0.60;;;;;;;18.35;80.07;100610.97;5091534;28;20051;-83
2022/06/24 01:59:20;;;;;;;2.05;1.05;;;;;;;18.20;83.35;100602.94;5095773;28;20020;-82
2022/06/24 02:01:45;;;;;;;0.93;0.93;;;;;;;18.03;82.81;100600.34;5094971;28;20052;-82
2022/06/24 02:04:11;;;;;;;1.20;0.88;;;;;;;17.95;83.00;100615.63;5095014;28;20942;-82
2022/06/24 02:06:37;;;;;;;0.77;0.77;;;;;;;17.96;81.21;100615.53;5095350;28;20446;-82
2022/06/24 02:09:03;;;;;;;0.57;0.53;;;;;;;18.00;80.68;100611.88;5095563;28;20095;-82
2022/06/24 02:14:17;;;;;;;0.50;0.50;;;;;;;18.09;80.04;100602.66;5057996;28;20050;-82
2022/06/24 02:16:43;;;;;;;0.53;0.53;;;;;;;18.13;79.68;100600.72;5088940;28;20024;-82
2022/06/24 02:19:09;;;;;;;0.38;0.38;;;;;;;18.10;81.20;100606.16;5096173;28;20028;-82
2022/06/24 02:21:35;;;;;;;0.60;0.50;;;;;;;18.06;80.96;100605.47;5087687;28;20031;-82
2022/06/24 02:24:01;;;;;;;0.68;0.68;;;;;;;18.03;80.28;100608.22;5095285;28;20066;-82
2022/06/24 02:26:27;;;;;;;0.40;0.40;;;;;;;18.03;81.80;100602.97;5095952;28;20024;-82
2022/06/24 02:28:53;;;;;;;0.40;0.40;;;;;;;18.02;80.03;100609.16;5095815;28;20111;-82
2022/06/24 02:31:19;;;;;;;0.50;0.50;;;;;;;18.05;79.80;100606.38;5094995;28;20028;-82
2022/06/24 02:33:44;;;;;;;0.40;0.40;;;;;;;18.08;79.80;100610.63;5095675;28;20024;-82
2022/06/24 02:36:10;;;;;;;0.30;0.30;;;;;;;18.11;79.62;100615.72;5095593;28;20397;-82
2022/06/24 02:38:36;;;;;;;0.43;0.33;;;;;;;18.13;79.13;100611.22;5094915;28;20028;-82
2022/06/24 02:41:02;;;;;;;0.40;0.40;;;;;;;18.14;79.11;100597.16;5095721;28;20038;-82
2022/06/24 02:43:35;;;;;;;0.40;0.40;;;;;;;18.16;79.48;100596.19;5095754;28;20391;-82
2022/06/24 02:46:08;;;;;;;0.17;0.17;;;;;;;18.18;79.11;100594.28;5094038;28;20411;-82
2022/06/24 02:48:35;;;;;;;0.47;0.35;;;;;;;18.20;79.50;100595.06;5087424;28;20028;-82
2022/06/24 02:51:05;;;;;;;0.32;0.32;;;;;;;18.19;81.88;100589.91;5093611;28;20020;-82
2022/06/24 02:53:32;;;;;;;1.52;1.42;;;;;;;18.03;82.54;100593.31;5094967;28;20105;-81
2022/06/24 02:55:58;;;;;;;;;;;;;;;17.95;83.61;100589.38;5093498;28;20256;-81
2022/06/24 02:58:23;;;;;;;;;;;;;;;17.85;82.10;100578.47;5095198;28;19958;-82
2022/06/24 03:00:49;;;;;;;1.10;1.10;;;;;;;17.86;82.22;100582.78;5094740;28;19912;-81
2022/06/24 03:03:16;;;;;;;0.80;0.80;;;;;;;17.86;81.04;100580.16;5087872;28;20020;-81
2022/06/24 03:05:43;;;;;;;1.10;1.10;;;;;;;17.89;82.02;100566.88;5093862;28;20031;-81
2022/06/24 03:08:10;;;;;;;0.90;0.90;;;;;;;17.90;80.85;100565.97;5095321;28;20028;-82
2022/06/24 03:10:36;;;;;;;0.70;0.70;;;;;;;17.93;80.34;100564.97;5095128;28;20020;-81
2022/06/24 03:13:02;;;;;;;0.70;0.70;;;;;;;17.96;80.20;100556.94;5094217;28;20012;-81
2022/06/24 03:15:28;;;;;;;0.57;0.57;;;;;;;17.99;80.19;100552.41;5095019;28;20031;-82
2022/06/24 03:17:53;;;;;;;1.00;0.90;;;;;;;17.99;79.95;100541.03;5090250;28;20028;-81
2022/06/24 03:20:19;;;;;;;0.60;0.60;;;;;;;18.03;79.81;100548.66;5091115;28;20044;-81
2022/06/24 03:22:44;;;;;;;0.57;0.57;;;;;;;18.03;80.10;100543.41;5094834;28;20023;-81
2022/06/24 03:25:10;;;;;;;0.63;0.63;;;;;;;18.03;80.05;100534.72;5094582;28;20360;-81
2022/06/24 03:27:36;;;;;;;1.30;0.50;;;;;;;18.02;79.75;100531.22;5094123;28;20396;-82
2022/06/24 03:30:03;;;;;;;0.68;0.55;;;;;;;18.01;79.72;100526.88;5094659;28;20027;-82
2022/06/24 03:32:29;;;;;;;0.50;0.50;;;;;;;18.04;79.64;100532.00;5094789;28;20103;-82
2022/06/24 03:34:54;;;;;;;0.57;0.57;;;;;;;18.07;79.36;100525.72;5093839;28;20099;-82
2022/06/24 03:37:19;;;;;;;0.60;0.60;;;;;;;18.09;79.58;100528.28;5095014;28;20020;-83
2022/06/24 03:39:45;;;;;;;0.60;0.60;;;;;;;18.09;79.16;100525.66;5094388;28;20085;-82
2022/06/24 03:42:10;;;;;;;0.70;0.70;;;;;;;18.09;78.99;100525.66;5093483;28;20111;-82
2022/06/24 03:44:36;;;;;;;0.33;0.33;;;;;;;18.10;79.36;100528.19;5093682;28;20357;-82
2022/06/24 03:47:01;;;;;;;0.70;0.70;;;;;;;18.11;79.07;100529.06;5086237;28;20020;-82
2022/06/24 03:49:27;;;;;;;0.50;0.50;;;;;;;18.08;79.68;100523.97;5093752;28;20073;-83
2022/06/24 03:51:52;;;;;;;0.85;0.85;;;;;;;18.08;79.48;100519.53;5094320;28;20141;-83
2022/06/24 03:54:18;;;;;;;0.63;0.43;;;;;;;18.08;79.49;100522.16;5093414;28;20473;-82
2022/06/24 03:56:44;;;;;;;0.67;0.67;;;;;;;18.11;79.25;100529.91;5093346;28;20059;-82
2022/06/24 03:59:09;;;;;;;2.10;0.63;;;;;;;18.12;79.22;100536.84;5094155;28;20327;-82
2022/06/24 04:01:34;;;;;;;0.63;0.63;;;;;;;18.12;79.11;100534.22;5093497;28;20031;-82
2022/06/24 04:03:59;;;;;;;0.73;0.73;;;;;;;18.12;79.06;100533.38;5094037;28;20020;-83
2022/06/24 04:06:25;;;;;;;0.77;0.77;;;;;;;18.14;79.43;100547.25;5094338;28;20065;-83
2022/06/24 04:08:52;;;;;;;0.60;0.60;;;;;;;18.11;79.35;100557.94;5093123;28;20032;-82
2022/06/24 04:11:18;;;;;;;0.38;0.38;;;;;;;18.12;79.49;100563.13;5094207;28;20106;-82
2022/06/24 04:13:44;;;;;;;0.60;0.60;;;;;;;18.12;79.75;100568.38;5093576;28;20475;-83
2022/06/24 04:16:10;;;;;;;0.60;0.60;;;;;;;18.10;79.26;100577.25;5092599;28;20069;-82
2022/06/24 04:18:35;;;;;;;0.73;0.73;;;;;;;18.08;79.35;100579.94;5093871;28;20035;-83
2022/06/24 04:21:01;;;;;;;0.83;0.60;;;;;;;18.06;79.42;100585.28;5092920;28;20039;-83
2022/06/24 04:23:26;;;;;;;0.63;0.63;;;;;;;18.11;79.53;100589.47;5093185;28;20032;-83
2022/06/24 04:25:53;;;;;;;0.50;0.50;;;;;;;18.13;79.70;100592.84;5093446;28;20073;-83
2022/06/24 04:28:18;;;;;;;0.70;0.70;;;;;;;18.10;79.33;100590.38;5093731;28;20052;-82
2022/06/24 04:30:44;;;;;;;0.70;0.70;;;;;;;18.12;79.44;100591.16;5092665;28;20058;-83
2022/06/24 04:33:09;;;;;;;0.53;0.53;;;;;;;18.11;79.52;100585.03;5093032;28;20035;-83
2022/06/24 04:35:35;;;;;;;0.70;0.70;;;;;;;18.10;79.55;100583.34;5093772;28;20024;-83
2022/06/24 04:38:00;;;;;;;0.70;0.70;;;;;;;18.11;79.71;100582.41;5092416;28;20024;-83
2022/06/24 04:40:26;;;;;;;0.70;0.70;;;;;;;18.11;79.86;100582.41;5091390;28;20028;-82
2022/06/24 04:42:51;;;;;;;0.60;0.60;;;;;;;18.11;79.76;100573.72;5086054;28;20028;-83
2022/06/24 04:45:17;;;;;;;0.43;0.43;;;;;;;18.12;79.64;100578.03;5092497;28;20100;-83
2022/06/24 04:47:43;;;;;;;0.55;0.55;;;;;;;18.14;79.75;100576.16;5093037;28;20027;-83
2022/06/24 04:50:09;;;;;;;0.67;0.67;;;;;;;18.17;79.69;100583.88;5093300;28;20032;-82
2022/06/24 04:52:35;;;;;;;0.60;0.60;;;;;;;18.17;80.17;100569.00;5092263;28;20040;-82
2022/06/24 04:55:01;;;;;;;1.05;0.95;;;;;;;18.17;80.06;100562.88;5093128;28;20054;-82
2022/06/24 04:57:26;;;;;;;0.80;0.80;;;;;;;18.21;79.72;100572.31;5092408;28;20051;-83
2022/06/24 04:59:51;;;;;;;0.80;0.77;;;;;;;18.22;79.69;100568.75;5092836;28;20031;-84
2022/06/24 05:02:17;;;;;;;0.80;0.80;;;;;;;18.26;79.71;100574.69;5092841;28;20519;-83
2022/06/24 05:04:43;;;;;;;1.00;1.00;;;;;;;18.27;80.17;100574.59;5091919;28;20052;-83
2022/06/24 05:07:08;;;;;;;0.70;0.70;;;;;;;18.27;79.91;100579.84;5092135;28;20056;-83
2022/06/24 05:09:34;;;;;;;0.60;0.60;;;;;;;18.25;79.96;100584.31;5083254;28;20021;-83
2022/06/24 05:11:59;;;;;;;0.70;0.70;;;;;;;18.23;79.87;100580.97;5092014;28;20031;-83
2022/06/24 05:14:25;;;;;;;0.73;0.73;;;;;;;18.25;80.55;100580.88;5093072;28;20028;-83
2022/06/24 05:16:50;;;;;;;0.50;0.50;;;;;;;18.22;80.18;100584.50;5092378;28;20278;-83
2022/06/24 05:19:16;;;;;;;1.17;1.03;;;;;;;18.22;81.08;100581.88;5092266;28;20020;-83
2022/06/24 05:21:41;;;;;;;0.70;0.70;;;;;;;18.21;80.30;100583.63;5092015;28;20176;-83
2022/06/24 05:24:07;;;;;;;0.80;0.80;;;;;;;18.22;80.15;100579.25;5091835;28;20028;-83
2022/06/24 05:26:32;;;;;;;1.00;1.00;;;;;;;18.25;80.39;100581.69;5089247;28;20032;-83
2022/06/24 05:28:58;;;;;;;1.30;1.20;;;;;;;18.30;81.93;100584.09;5092612;28;20024;-83
2022/06/24 05:31:23;;;;;;;1.07;1.07;;;;;;;18.27;80.55;100579.84;5092843;28;20453;-82
2022/06/24 05:33:48;;;;;;;0.97;0.97;;;;;;;18.31;80.21;100589.28;5096256;28;20024;-83
2022/06/24 05:36:14;;;;;;;1.17;1.17;;;;;;;18.32;80.32;100592.75;5096762;28;20131;-83
2022/06/24 05:38:39;;;;;;;1.33;1.27;;;;;;;18.36;80.61;100602.19;5093348;28;20377;-83
2022/06/24 05:41:04;;;;;;;1.53;1.10;;;;;;;18.32;80.63;100598.88;5090496;28;20115;-83
2022/06/24 05:43:30;;;;;;;1.60;1.50;;;;;;;18.33;82.44;100590.06;5096950;28;20036;-82
2022/06/24 05:45:56;;;;;;;1.50;1.40;;;;;;;18.28;80.99;100588.59;5091663;28;20384;-82
2022/06/24 05:48:21;;;;;;;1.63;1.47;;;;;;;18.28;80.41;100591.22;5096251;28;20026;-82
2022/06/24 05:50:47;;;;;;;1.40;1.30;;;;;;;18.27;81.53;100584.28;5096403;28;20032;-82
2022/06/24 05:55:58;;;;;;;1.23;1.13;;;;;;;18.23;81.11;100586.22;5095577;28;20035;-82
2022/06/24 05:58:28;;;;;;;1.33;1.23;;;;;;;18.25;81.31;100588.75;5096484;28;20046;-83
2022/06/24 06:00:57;;;;;;;1.17;1.17;;;;;;;18.28;83.29;100588.59;5095637;28;20038;-83
2022/06/24 06:03:25;;;;;;;1.58;1.20;;;;;;;18.28;82.66;100585.97;5096539;28;20062;-82
2022/06/24 06:05:51;;;;;;;0.90;0.90;;;;;;;18.32;82.29;100587.50;5096156;28;20051;-83
2022/06/24 06:08:17;;;;;;;0.90;0.90;;;;;;;18.37;81.71;100585.50;5079166;28;20047;-83
2022/06/24 06:10:46;;;;;;;1.08;1.08;;;;;;;18.43;81.77;100593.03;5096199;28;20040;-83
2022/06/24 06:13:12;;;;;;;1.50;1.40;;;;;;;18.47;83.53;100594.59;5096415;28;20028;-82
2022/06/24 06:15:38;;;;;;;1.58;1.48;;;;;;;18.48;83.66;100590.16;5095265;28;20038;-82
2022/06/24 06:18:04;;;;;;;0.90;0.90;;;;;;;18.50;82.65;100594.44;5096310;28;20365;-82
2022/06/24 06:20:29;;;;;;;1.00;1.00;;;;;;;18.51;82.39;100600.53;5087322;28;20058;-83
2022/06/24 06:22:54;;;;;;;1.00;1.00;;;;;;;18.53;82.27;100596.03;5095037;28;20028;-83
2022/06/24 06:25:22;;;;;;;1.13;1.13;;;;;;;18.50;81.56;100589.19;5085594;28;20021;-84
2022/06/24 06:27:48;;;;;;;1.40;1.30;;;;;;;18.56;81.63;100588.00;5095168;28;20469;-83
2022/06/24 06:30:13;;;;;;;1.20;1.20;;;;;;;18.60;81.60;100594.78;5095168;28;20035;-83
2022/06/24 06:32:39;;;;;;;1.60;1.50;;;;;;;18.61;81.20;100601.72;5095744;28;20020;-83
2022/06/24 06:35:08;;;;;;;1.33;1.23;;;;;;;18.59;81.27;100595.69;5093459;28;20028;-86
2022/06/24 06:37:34;;;;;;;1.60;1.50;;;;;;;18.57;82.52;100589.69;5083621;28;20491;-85
2022/06/24 06:40:03;;;;;;;1.60;1.50;;;;;;;18.53;81.27;100596.88;5089416;28;20472;-85
2022/06/24 06:42:29;;;;;;;1.70;1.60;;;;;;;18.58;81.34;100601.06;5078255;28;20027;-85
2022/06/24 06:44:55;;;;;;;1.70;1.60;;;;;;;18.58;81.79;100607.13;5094122;28;20039;-85
2022/06/24 06:47:20;;;;;;;1.63;1.52;;;;;;;18.58;81.08;100603.69;5090064;28;20085;-85
2022/06/24 06:49:45;;;;;;;1.70;1.60;;;;;;;18.60;80.94;100607.06;5095328;28;20530;-85
2022/06/24 06:52:11;;;;;;;2.00;1.90;;;;;;;18.60;81.07;100609.72;5094271;28;20494;-85
2022/06/24 06:54:37;;;;;;;1.70;1.60;;;;;;;18.60;81.61;100601.81;5095388;28;20024;-84
2022/06/24 06:57:02;;;;;;;1.60;1.50;;;;;;;18.62;81.84;100603.44;5094785;28;20051;-85
2022/06/24 06:59:28;;;;;;;1.30;1.20;;;;;;;18.57;81.49;100600.22;5095655;28;20376;-85
2022/06/24 07:01:53;;;;;;;1.73;1.63;;;;;;;18.59;81.45;100600.13;5094989;28;20274;-85
2022/06/24 07:04:18;;;;;;;1.60;1.50;;;;;;;18.61;81.69;100591.22;5094744;28;20038;-85
2022/06/24 07:06:44;;;;;;;1.60;1.50;;;;;;;18.62;82.02;100585.03;5093043;28;20032;-85
2022/06/24 07:09:10;;;;;;;1.90;1.80;;;;;;;18.60;81.68;100583.44;5095136;28;20020;-84
2022/06/24 07:11:35;;;;;;;1.33;1.23;;;;;;;18.65;82.37;100587.50;5094598;28;20361;-85
2022/06/24 07:14:01;;;;;;;2.63;2.37;;;;;;;18.67;86.95;100590.03;5095290;28;20107;-84
2022/06/24 07:16:35;;;;;;;2.70;2.50;;;;;;;18.60;83.42;100586.88;5095259;28;20032;-85
2022/06/24 07:19:01;;;;;;;2.40;2.20;;;;;;;18.59;83.91;100586.97;5093756;28;20024;-84
2022/06/24 07:21:27;;;;;;;5.13;3.60;;;;;;;18.57;87.53;100587.06;5094820;28;20426;-85
2022/06/24 07:23:52;;;;;;;5.53;3.97;;;;;;;18.50;86.63;100575.16;5094626;28;20020;-85
2022/06/24 07:26:17;;;;;;;4.97;3.40;;;;;;;18.48;89.23;100572.63;5094416;28;20439;-84
2022/06/24 07:28:43;;;;;;;6.33;4.07;;;;;;;18.45;89.44;100564.91;5094706;28;20027;-84
2022/06/24 07:31:19;;;;;;;5.43;3.87;;;;;;;18.41;87.67;100555.47;5087458;28;20483;-84
2022/06/24 07:33:45;;;;;;;10.32;5.50;;;;;;;18.37;91.25;100557.41;5093796;28;20043;-84
2022/06/24 07:36:10;;;;;;;6.13;4.07;;;;;;;18.38;88.63;100563.53;5086878;28;20020;-82
2022/06/24 07:38:36;;;;;;;5.27;3.90;;;;;;;18.35;88.75;100572.41;5094153;28;20035;-86
2022/06/24 07:41:01;;;;;;;5.10;3.63;;;;;;;18.40;90.77;100571.34;5093407;28;20039;-83
2022/06/24 07:43:27;;;;;;;3.10;2.80;;;;;;;18.40;87.92;100585.34;5094634;28;20027;-85
2022/06/24 07:45:53;;;;;;;3.10;2.40;;;;;;;18.44;87.04;100596.53;5094372;28;20016;-85
2022/06/24 07:48:19;;;;;;;2.33;2.13;;;;;;;18.48;86.85;100603.31;5094086;28;20027;-82
2022/06/24 07:50:44;;;;;;;2.50;2.20;;;;;;;18.53;86.04;100603.91;5094213;28;20024;-82
2022/06/24 07:53:09;;;;;;;2.30;2.10;;;;;;;18.56;85.51;100609.03;5094067;28;20064;-83
2022/06/24 07:58:18;;;;;;;1.58;1.50;;;;;;;18.64;85.47;100611.22;5094130;28;20458;-82
2022/06/24 08:00:44;;;;;;;1.87;1.77;;;;;;;18.68;85.32;100603.13;5092328;28;20107;-83
2022/06/24 08:03:09;;;;;;;1.73;1.63;;;;;;;18.76;85.24;100610.56;5091499;28;20022;-82
2022/06/24 08:05:34;;;;;;;1.57;1.47;;;;;;;18.79;85.70;100609.59;5092588;28;20496;-83
2022/06/24 08:08:00;;;;;;;1.80;1.70;;;;;;;18.82;84.84;100602.38;5093264;28;20115;-83
2022/06/24 08:10:25;;;;;;;1.80;1.70;;;;;;;18.89;85.33;100607.28;5094099;28;20024;-83
2022/06/24 08:12:50;;;;;;;1.70;1.60;;;;;;;18.93;85.12;100598.31;5093725;28;20058;-83
2022/06/24 08:15:17;;;;;;;1.70;1.60;;;;;;;18.95;85.82;100602.59;5093138;28;20020;-82
2022/06/24 08:17:44;;;;;;;3.28;2.70;;;;;;;18.96;88.21;100606.91;5093566;28;20020;-82
2022/06/24 08:20:09;;;;;;;;;;;;;;;18.93;85.98;100604.44;5094117;28;20028;-85
2022/06/24 08:22:34;;;;;;;4.93;3.70;;;;;;;18.91;90.77;100615.94;5094212;28;20006;-81
2022/06/24 08:25:01;;;;;;;4.53;3.40;;;;;;;18.88;88.14;100606.44;5093702;28;20488;-84
2022/06/24 08:27:26;;;;;;;3.65;2.85;;;;;;;18.91;88.52;100608.94;5093679;28;20430;-84
2022/06/24 08:29:51;;;;;;;7.17;4.37;;;;;;;18.93;89.05;100601.81;5090788;28;20099;-87
2022/06/24 08:32:17;;;;;;;5.00;3.67;;;;;;;19.00;89.08;100599.69;5093417;28;20028;-86
2022/06/24 08:34:42;;;;;;;5.23;3.40;;;;;;;19.08;87.91;100601.91;5085834;28;20016;-86
2022/06/24 08:37:07;;;;;;;3.93;3.07;;;;;;;19.19;87.44;100598.69;5093108;28;20460;-87
2022/06/24 08:39:32;;;;;;;2.80;2.50;;;;;;;19.36;89.70;100598.59;5093453;28;20083;-86
2022/06/24 08:42:00;;;;;;;4.07;3.30;;;;;;;19.48;87.87;100594.41;5093188;28;20027;-86
2022/06/24 08:44:25;;;;;;;3.58;3.05;;;;;;;19.67;87.83;100598.66;5092531;28;20540;-86
2022/06/24 08:46:51;;;;;;;3.23;2.60;;;;;;;19.84;87.02;100606.41;5093157;28;20034;-86
2022/06/24 08:49:17;;;;;;;3.28;2.90;;;;;;;20.01;88.36;100613.34;5092519;28;20028;-86
2022/06/24 08:51:45;;;;;;;2.63;2.43;;;;;;;20.17;87.77;100613.28;5091928;28;20025;-86
2022/06/24 08:54:12;;;;;;;2.50;2.30;;;;;;;20.32;85.34;100613.31;5091046;28;20294;-87
2022/06/24 08:56:37;;;;;;;7.63;4.30;;;;;;;20.46;86.40;100610.72;5092238;28;20032;-87
2022/06/24 08:59:02;;;;;;;3.67;3.13;;;;;;;20.55;84.88;100601.38;5087994;28;20028;-87
2022/06/24 09:01:27;;;;;;;4.97;3.47;;;;;;;20.71;86.13;100600.44;5082304;28;20024;-87
2022/06/24 09:03:53;;;;;;;3.00;2.70;;;;;;;20.83;86.40;100594.44;5091991;28;20392;-87
2022/06/24 09:06:19;;;;;;;3.10;2.80;;;;;;;20.95;84.24;100596.31;5089172;28;20028;-86
2022/06/24 09:08:47;;;;;;;2.50;2.30;;;;;;;21.12;85.35;100600.50;5081398;28;20113;-87
2022/06/24 09:11:12;;;;;;;2.72;2.53;;;;;;;21.37;84.12;100595.44;5092515;28;20016;-87
2022/06/24 09:13:43;;;;;;;2.60;2.40;;;;;;;21.58;84.11;100596.66;5092884;28;20031;-84
2022/06/24 09:16:09;;;;;;;2.20;2.10;;;;;;;21.69;83.50;100598.66;5093052;28;20438;-85
2022/06/24 09:18:35;;;;;;;2.60;2.40;;;;;;;21.77;82.94;100602.56;5092163;28;20020;-85
2022/06/24 09:21:00;;;;;;;2.90;2.27;;;;;;;21.85;82.82;100600.25;5092637;28;20084;-88
2022/06/24 09:23:25;;;;;;;2.70;2.50;;;;;;;21.89;80.59;100601.75;5093385;28;20028;-86
2022/06/24 09:25:53;;;;;;;2.50;2.30;;;;;;;21.94;81.72;100594.38;5088289;28;20028;-82
2022/06/24 09:28:23;;;;;;;2.22;2.10;;;;;;;22.08;80.76;100596.06;5080619;28;20021;-79
2022/06/24 09:30:49;;;;;;;2.08;1.95;;;;;;;22.21;81.01;100604.00;5086693;28;20013;-84
2022/06/24 09:33:17;;;;;;;2.10;1.90;;;;;;;22.35;80.68;100600.41;5090399;28;20035;-84
2022/06/24 09:35:43;;;;;;;4.75;3.22;;;;;;;22.51;80.56;100594.97;5092255;28;20025;-83
2022/06/24 09:38:09;;;;;;;3.70;2.90;;;;;;;22.73;80.16;100598.75;5090794;28;20110;-86
2022/06/24 09:40:34;;;;;;;2.70;2.50;;;;;;;22.94;80.14;100586.63;5091905;28;20032;-84
2022/06/24 09:43:02;;;;;;;4.03;3.55;;;;;;;23.00;75.82;100588.00;5092454;28;20032;-83
2022/06/24 09:45:47;;;;;;;3.58;3.00;;;;;;;22.85;77.50;100597.00;5092493;28;20065;-83
2022/06/24 09:48:39;;;;;;;4.28;3.30;;;;;;;22.81;77.81;100591.09;5092687;28;20016;-84
2022/06/24 09:51:06;;;;;;;2.72;2.50;;;;;;;22.96;78.44;100592.66;5088815;28;20036;-84
2022/06/24 09:53:36;;;;;;;4.57;3.50;;;;;;;23.20;72.25;100586.56;5091521;28;20488;-83
2022/06/24 09:56:03;;;;;;;10.43;6.68;;;;;;;23.15;72.89;100591.31;5090489;28;20105;-83
2022/06/24 09:58:29;;;;;;;6.20;4.63;;;;;;;23.18;73.94;100583.16;5070050;28;20539;-84
2022/06/24 10:00:55;;;;;;;5.32;4.20;;;;;;;23.24;75.56;100589.84;5071277;28;20060;-84
2022/06/24 10:03:21;;;;;;;3.90;3.50;;;;;;;23.35;75.97;100586.41;5083627;28;20105;-83
2022/06/24 10:05:51;;;;;;;3.30;3.00;;;;;;;23.57;77.09;100590.97;5084436;28;20036;-83
2022/06/24 10:08:19;;;;;;;4.53;3.67;;;;;;;23.70;74.31;100591.72;5071446;28;20020;-83
2022/06/24 10:10:50;;;;;;;3.97;3.47;;;;;;;23.57;75.19;100589.16;5072719;28;20036;-83
2022/06/24 10:13:26;;;;;;;3.40;3.10;;;;;;;23.43;74.76;100584.88;5072017;28;20471;-83
2022/06/24 10:16:02;;;;;;;3.40;3.10;;;;;;;23.29;74.99;100588.56;5071005;28;20036;-83
2022/06/24 10:18:41;;;;;;;;;;;;;;;23.12;75.27;100588.88;5072183;28;20103;-85
2022/06/24 10:21:09;;;;;;;5.30;3.95;;;;;;;22.92;73.94;100587.66;5074551;28;19916;-83
2022/06/24 10:23:37;;;;;;;4.50;3.80;;;;;;;22.77;74.83;100593.13;5074990;28;20166;-83
2022/06/24 10:26:22;;;;;;;4.25;3.63;;;;;;;22.76;75.84;100598.50;5075333;28;20033;-83
2022/06/24 10:29:00;;;;;;;3.85;3.30;;;;;;;22.82;76.39;100609.50;5074703;28;20024;-83
2022/06/24 10:31:54;;;;;;;6.32;4.53;;;;;;;22.94;76.18;100621.03;5075460;28;20036;-84
2022/06/24 10:34:22;;;;;;;6.82;4.78;;;;;;;22.72;74.66;100623.50;5075961;28;20060;-85
2022/06/24 10:36:50;;;;;;;4.80;3.70;;;;;;;22.33;73.28;100632.25;5074412;28;20055;-85
2022/06/24 10:39:18;;;;;;;5.38;3.33;;;;;;;21.72;73.56;100647.78;5075541;28;20021;-85
2022/06/24 10:41:44;;;;;;;5.05;2.83;;;;;;;20.89;74.78;100654.69;5075141;28;20028;-87
2022/06/24 10:44:26;;;;;;;3.40;2.25;;;;;;;20.33;76.78;100644.84;5074785;28;20049;-87
2022/06/24 10:47:04;;;;;;;2.13;1.92;;;;;;;20.04;77.23;100643.94;5074989;28;20024;-88
2022/06/24 10:49:49;;;;;;;2.22;2.03;;;;;;;19.79;78.24;100645.34;5089690;28;20441;-86
2022/06/24 10:52:35;;;;;;;2.38;1.80;;;;;;;19.59;78.44;100639.41;5080602;28;20473;-86
2022/06/24 10:55:15;;;;;;;1.80;1.70;;;;;;;19.50;78.77;100636.44;5095662;28;20085;-88
2022/06/24 10:57:59;;;;;;;1.73;1.63;;;;;;;19.43;80.26;100646.47;5092378;28;20036;-86
2022/06/24 11:00:48;;;;;;;1.52;1.42;;;;;;;19.37;79.58;100652.06;5094767;28;20077;-87
2022/06/24 11:03:20;;;;;;;1.70;1.60;;;;;;;19.31;79.08;100645.34;5094804;28;20027;-87
2022/06/24 11:05:46;;;;;;;1.55;1.45;;;;;;;19.20;79.39;100630.19;5095059;28;20026;-86
2022/06/24 11:08:13;;;;;;;;;;;;;;;19.16;80.39;100628.63;5089995;28;20027;-86
2022/06/24 11:10:39;;;;;;;1.50;1.40;;;;;;;19.18;79.65;100620.69;5093153;28;20272;-86
2022/06/24 11:13:04;;;;;;;1.40;1.30;;;;;;;19.21;79.55;100617.84;5094229;28;20094;-85
2022/06/24 11:15:49;;;;;;;1.53;1.43;;;;;;;19.30;80.27;100612.13;5094616;28;20027;-85
2022/06/24 11:18:16;;;;;;;1.10;1.10;;;;;;;19.37;79.82;100612.59;5089584;28;20471;-84
2022/06/24 11:20:42;;;;;;;;;;;;;;;19.42;79.56;100611.41;5095172;28;20035;-85
2022/06/24 11:23:13;;;;;;;1.70;1.60;;;;;;;19.46;79.87;100609.47;5095015;28;19912;-86
2022/06/24 11:25:40;;;;;;;1.60;1.50;;;;;;;19.46;79.82;100614.72;5083558;28;20024;-86
2022/06/24 11:28:16;;;;;;;1.50;1.40;;;;;;;19.49;80.58;100600.53;5084169;28;20028;-87
2022/06/24 11:30:41;;;;;;;1.13;1.13;;;;;;;19.58;80.31;100602.66;5094442;28;20062;-87
2022/06/24 11:33:07;;;;;;;1.33;1.27;;;;;;;19.80;80.24;100602.28;5094081;28;20451;-87
2022/06/24 11:35:33;;;;;;;2.07;1.40;;;;;;;20.24;82.36;100594.50;5089105;28;20137;-86
2022/06/24 11:37:58;;;;;;;1.50;1.40;;;;;;;20.63;79.88;100590.34;5070207;28;20035;-85